Tiempo atmosférico en la estación meteorológica de Hermigua, Santa Cruz de Tenerife (252 m.)



Fecha
DESCASC
Temp. máxima en grados centígrados (hora)
DESCASC
Temp. mínima en grados centígrados (hora)
DESCASC
Temp. media en grados centígrados
DESCASC
Racha de viento máxima en m/sg (hora)
DESCASC
Velocidad máxima media en intervalos de 10 minutos(hora)
DESCASC
Precipitaciones diarias en mm
DESCASC
Precipitaciones de 00:00 a 06:00 en mm
DESCASC
Precipitaciones de 06:00 a 12:00 en mm
DESCASC
Precipitaciones de 12:00 a 18:00 en mm
DESCASC
Precipitaciones de 18:00 a 24:00 en mm
DESCASC
27-12-2020 19.5 (14:20) 14.6 (00:00) 17.1 3.89 (04:20) 2.22 (06:40) 14.6 9.8 4.2 0.4 0.2
08-01-2021 16.9 (02:00) 13.7 (00:00) 15.3 15.56 (10:20) 7.22 (01:40) 10.4 6.2 1.8 1.2 1.2
07-01-2021 21.4 (14:30) 15.6 (00:00) 18.5 21.11 (13:00) 9.44 (11:10) 21.2 4 6.4 0 10.8
06-01-2021 22.1 (14:00) 15.4 (00:00) 18.8 11.11 (07:00) 3.33 (12:30) 18.4 2.6 15.2 0.2 0.4
26-12-2020 18.9 (14:00) 14.5 (00:00) 16.7 9.17 (01:00) 4.44 (01:50) 27.4 1 15.8 10.2 0.4
10-01-2021 16.2 (12:00) 12.6 (01:30) 14.4 15.83 (05:00) 6.39 (05:00) 1.8 0.4 1 0.4 0
02-01-2021 17.2 (14:50) 13.6 (00:00) 15.4 5 (00:50) 2.5 (21:20) 0.2 0.2 0 0 0
15-01-2021 16.7 (14:00) 14.5 (00:00) 15.6 10.28 (05:10) 5.28 (05:10) 0 0 0 0 0
11-01-2021 16.4 (14:20) 13.5 (00:00) 14.9 12.22 (00:30) 5.56 (00:40) 0 0 0 0 0
12-01-2021 17 (14:20) 12.2 (00:00) 14.6 8.33 (01:20) 3.61 (01:30) 0 0 0 0 0
13-01-2021 15.8 (15:20) 14.5 (00:00) 15.2 11.11 (17:20) 4.72 (13:00) 0 0 0 0 0
14-01-2021 16.9 (13:00) 11.3 (08:10) 14.1 10.28 (21:30) 4.72 (21:40) 0 0 0 0 0
21-01-2021 20.5 (15:50) 11.6 (00:00) 16.1 4.44 (07:50) 2.78 (07:40) 0.8 0 0 0 0.8
16-01-2021 18.6 (13:30) 14.6 (00:00) 16.6 8.33 (15:50) 4.17 (15:50) 0 0 0 0 0
17-01-2021 18.2 (12:30) 13.6 (00:00) 15.9 6.39 (12:40) 3.61 (13:10) 0 0 0 0 0
18-01-2021 18.4 (13:50) 11.9 (00:00) 15.1 5.83 (14:00) 3.06 (09:10) 0 0 0 0 0
19-01-2021 18.1 (13:50) 11 (00:00) 14.6 5.83 (02:20) 3.06 (02:00) 0 0 0 0 0
20-01-2021 18.3 (14:20) 9 (00:00) 13.6 5 (14:30) 2.78 (08:50) 0 0 0 0 0
23-12-2020 20.4 (12:20) 10.9 (00:30) 15.6 10.83 (14:30) 3.61 (14:30) 0 0 0 0 0
09-01-2021 14.8 (12:30) 12.4 (00:00) 13.6 18.06 (13:10) 6.94 (13:10) 9.4 0 4.4 5 0
05-01-2021 21.5 (12:40) 15 (00:00) 18.3 6.39 (06:40) 2.5 (14:40) 0 0 0 0 0
04-01-2021 20.2 (15:20) 15.9 (00:00) 18.1 12.78 (09:40) 6.11 (10:00) 0 0 0 0 0
03-01-2021 18.2 (14:10) 13.1 (00:00) 15.7 9.44 (17:20) 3.89 (17:20) 0 0 0 0 0
01-01-2021 17.5 (12:10) 14 (00:00) 15.8 9.44 (00:30) 3.89 (18:30) 0 0 0 0 0
31-12-2020 18.9 (14:20) 13.7 (00:00) 16.3 7.5 (23:20) 3.33 (23:00) 0 0 0 0 0
30-12-2020 18.8 (15:00) 14.1 (00:00) 16.4 5 (14:50) 2.22 (13:40) 0 0 0 0 0
29-12-2020 19 (12:20) 14.3 (00:00) 16.7 5 (07:10) 2.78 (06:40) 0 0 0 0 0
28-12-2020 20.1 (12:20) 13.2 (00:00) 16.7 5.83 (08:00) 3.06 (08:00) 0 0 0 0 0
25-12-2020 21.4 (15:40) 15.1 (00:00) 18.3 11.67 (12:20) 4.44 (12:20) 0.4 0 0 0.2 0.2
24-12-2020 19.9 (13:20) 15.7 (00:00) 17.8 17.78 (08:50) 5.28 (16:40) 0 0 0 0 0

Gráficas

Temp. máximas Temp. mínimas Temp. medias Precipitaciones Rachas de viento máximas Velocidades máximas media en intervalos de 10 minutos

Datos horarios

Fecha y hora oficial Temperatura (ºC) Velocidad del viento (km/h) Dirección del viento Racha (km/h) Dirección de racha Precipitación (mm) Presión (hPa) Tendencia (hPa) Humedad (%)
2021-01-21 23:00:00 16.2 5 Sur 10 Sur 0 -- -- 94
2021-01-21 22:00:00 15.4 5 Sur 11 Sur 0 -- -- 93
2021-01-21 21:00:00 13.9 3 Sur 9 Sur 0 -- -- 93
2021-01-21 20:00:00 14.5 4 Sur 8 Sur 0 -- -- 91
2021-01-21 19:00:00 15.7 4 Sur 9 Sur 0 -- -- 88
2021-01-21 18:00:00 17.6 0 Calma 6 Nordeste 0 -- -- 82
2021-01-21 17:00:00 19.1 3 Nordeste 13 Nordeste 0 -- -- 77
2021-01-21 16:00:00 20.2 5 Nordeste 12 Norte 0 -- -- 73
2021-01-21 15:00:00 20.1 5 Nordeste 12 Nordeste 0 -- -- 75
2021-01-21 14:00:00 19.4 6 Nordeste 14 Nordeste 0 -- -- 76
2021-01-21 13:00:00 19.7 4 Norte 10 Norte 0 -- -- 74
2021-01-21 12:00:00 19.2 5 Norte 12 Este 0 -- -- 76
2021-01-21 11:00:00 18 5 Nordeste 9 Nordeste 0 -- -- 79
2021-01-21 10:00:00 15.1 4 Sur 13 Sudeste 0 -- -- 87
2021-01-21 09:00:00 12.8 6 Sur 12 Sur 0 -- -- 92
2021-01-21 08:00:00 13 7 Sur 16 Sur 0 -- -- 96
2021-01-21 07:00:00 12 4 Sur 8 Sudeste 0 -- -- 97
2021-01-21 06:00:00 11.9 5 Sudeste 9 Sur 0 -- -- 96
2021-01-21 05:00:00 12.1 5 Sudeste 9 Sur 0 -- -- 95
2021-01-21 04:00:00 12.5 6 Sur 10 Sur 0 -- -- 97
2021-01-21 03:00:00 12.1 5 Sur 10 Sur 0 -- -- 92
2021-01-21 02:00:00 13.3 6 Sur 10 Sur 0 -- -- 91
2021-01-21 01:00:00 14.7 5 Sur 11 Sur 0 -- -- 85
2021-01-21 00:00:00 14.9 8 Sur 12 Sur 0 -- -- 83
2021-01-20 23:00:00 15 7 Sur 12 Sur 0 -- -- 83
2021-01-20 22:00:00 14 5 Sudeste 12 Noroeste 0 -- -- 89
2021-01-20 21:00:00 12.2 5 Este 7 Sudeste 0 -- -- 91
2021-01-20 20:00:00 13.1 4 Sudeste 12 Sur 0 -- -- 85
2021-01-20 19:00:00 13.2 5 Sur 8 Sur 0 -- -- 86
2021-01-20 18:00:00 15.7 0 Calma 9 Norte 0 -- -- 76
2021-01-20 17:00:00 17.1 4 Nordeste 9 Nordeste 0 -- -- 70
2021-01-20 16:00:00 18 5 Norte 13 Este 0 -- -- 67
2021-01-20 15:00:00 17.9 8 Nordeste 18 Norte 0 -- -- 69
2021-01-20 14:00:00 18 6 Nordeste 17 Norte 0 -- -- 68
2021-01-20 13:00:00 18 6 Norte 17 Nordeste 0 -- -- 69
2021-01-20 12:00:00 17.6 7 Nordeste 15 Norte 0 -- -- 70
2021-01-20 11:00:00 16.3 3 Sudoeste 8 Sur 0 -- -- 72
2021-01-20 10:00:00 13.5 6 Sur 13 Sur 0 -- -- 82
2021-01-20 09:00:00 11.6 9 Sur 16 Sur 0 -- -- 80
2021-01-20 08:00:00 9 6 Sur 13 Sur 0 -- -- 84
2021-01-20 07:00:00 9.4 5 Sur 13 Sur 0 -- -- 81
2021-01-20 06:00:00 9.8 9 Sur 12 Sur 0 -- -- 79
2021-01-20 05:00:00 10.2 8 Sur 13 Sur 0 -- -- 79
2021-01-20 04:00:00 10 6 Sur 13 Sur 0 -- -- 80
2021-01-20 03:00:00 10.5 6 Sur 12 Sur 0 -- -- 76
2021-01-20 02:00:00 10.7 8 Sur 12 Sur 0 -- -- 82
2021-01-20 01:00:00 10.8 8 Sur 13 Sur 0 -- -- 83
2021-01-20 00:00:00 11 7 Sur 13 Sur 0 -- -- 84
2021-01-19 23:00:00 11.5 8 Sur 12 Sur 0 -- -- 86
2021-01-19 22:00:00 11.6 7 Sur 14 Sur 0 -- -- 85
2021-01-19 21:00:00 12.1 8 Sur 13 Sur 0 -- -- 80
2021-01-19 20:00:00 12.4 8 Sur 13 Sur 0 -- -- 82
2021-01-19 19:00:00 13.2 7 Sur 10 Sur 0 -- -- 81
2021-01-19 18:00:00 15.7 0 Calma 10 Nordeste 0 -- -- 75
2021-01-19 17:00:00 17.1 5 Norte 13 Nordeste 0 -- -- 72
2021-01-19 16:00:00 18 5 Nordeste 18 Nordeste 0 -- -- 70
2021-01-19 15:00:00 18 6 Nordeste 14 Nordeste 0 -- -- 69
2021-01-19 14:00:00 18.1 6 Nordeste 16 Norte 0 -- -- 66
2021-01-19 13:00:00 17.8 7 Nordeste 18 Sudeste 0 -- -- 66
2021-01-19 12:00:00 17.7 5 Nordeste 13 Nordeste 0 -- -- 65
2021-01-19 11:00:00 16.1 2 Oeste 9 Sur 0 -- -- 65
2021-01-19 10:00:00 13.3 6 Sur 14 Sur 0 -- -- 78
2021-01-19 09:00:00 11.5 9 Sur 15 Sur 0 -- -- 84
2021-01-19 08:00:00 11.5 8 Sur 17 Sur 0 -- -- 76
2021-01-19 07:00:00 11.5 9 Sur 16 Sur 0 -- -- 76
2021-01-19 06:00:00 11.2 9 Sur 14 Sur 0 -- -- 74
2021-01-19 05:00:00 11.3 9 Sur 14 Sur 0 -- -- 72
2021-01-19 04:00:00 11.7 9 Sur 16 Sur 0 -- -- 75
2021-01-19 03:00:00 12.1 9 Sur 21 Sur 0 -- -- 78
2021-01-19 02:00:00 13 11 Sur 16 Sur 0 -- -- 66
2021-01-19 01:00:00 14.2 8 Sur 13 Sur 0 -- -- 73
2021-01-19 00:00:00 14.3 6 Sur 13 Sur 0 -- -- 74
2021-01-18 23:00:00 14.1 8 Sur 13 Sur 0 -- -- 73
2021-01-18 22:00:00 14 8 Sur 14 Sur 0 -- -- 76
2021-01-18 21:00:00 14.1 8 Sur 14 Sur 0 -- -- 75
2021-01-18 20:00:00 14.5 8 Sur 14 Sur 0 -- -- 73
2021-01-18 19:00:00 14.9 6 Sur 10 Sur 0 -- -- 79
2021-01-18 18:00:00 15.5 2 Este 11 Noroeste 0 -- -- 76
2021-01-18 17:00:00 16.9 4 Nordeste 12 Nordeste 0 -- -- 70
2021-01-18 16:00:00 17.7 6 Nordeste 19 Nordeste 0 -- -- 67
2021-01-18 15:00:00 18.1 8 Norte 18 Nordeste 0 -- -- 66
2021-01-18 14:00:00 18.1 9 Nordeste 21 Nordeste 0 -- -- 66
2021-01-18 13:00:00 18.3 5 Nordeste 19 Norte 0 -- -- 63
2021-01-18 12:00:00 17.8 5 Norte 17 Norte 0 -- -- 68
2021-01-18 11:00:00 16.6 4 Sur 14 Este 0 -- -- 68
2021-01-18 10:00:00 13.6 8 Sur 15 Sur 0 -- -- 81
2021-01-18 09:00:00 11.9 10 Sur 15 Sur 0 -- -- 80
2021-01-18 08:00:00 12.3 9 Sur 16 Sur 0 -- -- 73
2021-01-18 07:00:00 12.2 9 Sur 18 Sur 0 -- -- 75
2021-01-18 06:00:00 12.5 9 Sur 15 Sur 0 -- -- 77
2021-01-18 05:00:00 12.8 9 Sur 19 Sur 0 -- -- 74
2021-01-18 04:00:00 13.1 9 Sur 17 Sur 0 -- -- 72
2021-01-18 03:00:00 13.4 7 Sur 17 Sur 0 -- -- 72
2021-01-18 02:00:00 13.8 10 Sur 18 Sur 0 -- -- 70
2021-01-18 01:00:00 14.3 8 Sur 18 Sur 0 -- -- 72
2021-01-18 00:00:00 14.5 9 Sur 16 Sur 0 -- -- 70
2021-01-17 23:00:00 14.9 9 Sur 14 Sur 0 -- -- 71
2021-01-17 22:00:00 15.3 5 Sur 12 Sudeste 0 -- -- 71
2021-01-17 21:00:00 15.8 4 Sudeste 10 Nordeste 0 -- -- 73
2021-01-17 20:00:00 16 7 Norte 15 Nordeste 0 -- -- 76
2021-01-17 19:00:00 16.2 6 Nordeste 14 Nordeste 0 -- -- 76
2021-01-17 18:00:00 16.5 6 Nordeste 15 Este 0 -- -- 71
2021-01-17 17:00:00 16.9 6 Nordeste 14 Norte 0 -- -- 68
2021-01-17 16:00:00 17.6 5 Nordeste 15 Norte 0 -- -- 67
2021-01-17 15:00:00 18.2 5 Nordeste 14 Norte 0 -- -- 63
2021-01-17 14:00:00 17.5 6 Nordeste 23 Nordeste 0 -- -- 64
2021-01-17 13:00:00 18 10 Nordeste 23 Nordeste 0 -- -- 62
2021-01-17 12:00:00 17.8 6 Norte 19 Nordeste 0 -- -- 59
2021-01-17 11:00:00 17.2 4 Oeste 21 Sudoeste 0 -- -- 63
2021-01-17 10:00:00 15.2 3 Sudeste 18 Este 0 -- -- 68
2021-01-17 09:00:00 14.5 4 Norte 12 Este 0 -- -- 69
2021-01-17 08:00:00 14.2 2 Este 15 Nordeste 0 -- -- 73
2021-01-17 07:00:00 15 4 Nordeste 19 Nordeste 0 -- -- 69
2021-01-17 06:00:00 15.1 7 Norte 19 Nordeste 0 -- -- 69
2021-01-17 05:00:00 15.2 6 Norte 21 Nordeste 0 -- -- 69
2021-01-17 04:00:00 15.4 10 Nordeste 21 Nordeste 0 -- -- 69
2021-01-17 03:00:00 15.5 6 Norte 21 Norte 0 -- -- 69
2021-01-17 02:00:00 15.6 6 Norte 19 Norte 0 -- -- 72
2021-01-17 01:00:00 15.4 4 Norte 16 Nordeste 0 -- -- 69
2021-01-17 00:00:00 15.6 5 Norte 18 Norte 0 -- -- 68
2021-01-16 23:00:00 15.6 9 Norte 21 Nordeste 0 -- -- 66
2021-01-16 22:00:00 15.9 8 Nordeste 24 Norte 0 -- -- 68
2021-01-16 21:00:00 16 12 Nordeste 27 Nordeste 0 -- -- 72
2021-01-16 20:00:00 16.1 9 Nordeste 28 Norte 0 -- -- 74
2021-01-16 19:00:00 16.2 10 Nordeste 27 Norte 0 -- -- 74
2021-01-16 18:00:00 16.3 10 Nordeste 28 Norte 0 -- -- 77
2021-01-16 17:00:00 16.2 13 Nordeste 27 Norte 0 -- -- 79
2021-01-16 16:00:00 16.2 14 Norte 30 Nordeste 0 -- -- 79
2021-01-16 15:00:00 17.6 6 Norte 24 Norte 0 -- -- 66
2021-01-16 14:00:00 18.3 7 Norte 20 Nordeste 0 -- -- 59
2021-01-16 13:00:00 18.4 6 Nordeste 16 Noroeste 0 -- -- 54
2021-01-16 12:00:00 17.7 5 Nordeste 26 Nordeste 0 -- -- 57
2021-01-16 11:00:00 16.8 8 Nordeste 22 Norte 0 -- -- 60
2021-01-16 10:00:00 16.1 6 Nordeste 23 Norte 0 -- -- 67
2021-01-16 09:00:00 15.3 9 Nordeste 28 Nordeste 0 -- -- 69
2021-01-16 08:00:00 14.9 5 Nordeste 19 Norte 0 -- -- 70
2021-01-16 07:00:00 14.8 7 Norte 19 Este 0 -- -- 68
2021-01-16 06:00:00 14.8 7 Norte 25 Nordeste 0 -- -- 65
2021-01-16 05:00:00 15.1 12 Nordeste 23 Noroeste 0 -- -- 67
2021-01-16 04:00:00 15.1 7 Norte 27 Norte 0 -- -- 65
2021-01-16 03:00:00 15.2 14 Norte 29 Nordeste 0 -- -- 65
2021-01-16 02:00:00 15.2 12 Norte 28 Nordeste 0 -- -- 65
2021-01-16 01:00:00 15.3 10 Nordeste 27 Norte 0 -- -- 73
2021-01-16 00:00:00 15.5 6 Noroeste 31 Norte 0 -- -- 66
2021-01-15 23:00:00 15.5 8 Nordeste 36 Nordeste 0 -- -- 67
2021-01-15 22:00:00 15.6 11 Nordeste 30 Norte 0 -- -- 69
2021-01-15 21:00:00 15.7 14 Nordeste 31 Norte 0 -- -- 70
2021-01-15 20:00:00 15.6 12 Norte 35 Norte 0 -- -- 71
2021-01-15 19:00:00 15.6 15 Norte 37 Norte 0 -- -- 75
2021-01-15 18:00:00 15.8 10 Norte 32 Norte 0 -- -- 64
2021-01-15 17:00:00 15.9 12 Norte 31 Norte 0 -- -- 70
2021-01-15 16:00:00 16.2 13 Norte 34 Norte 0 -- -- 65
2021-01-15 15:00:00 16 13 Norte 31 Nordeste 0 -- -- 73
2021-01-15 14:00:00 16.7 7 Norte 22 Nordeste 0 -- -- 67
2021-01-15 13:00:00 16.2 10 Nordeste 27 Nordeste 0 -- -- 65
2021-01-15 12:00:00 15.8 10 Norte 31 Nordeste 0 -- -- 64
2021-01-15 11:00:00 15.1 11 Nordeste 27 Nordeste 0 -- -- 62
2021-01-15 10:00:00 15.1 8 Nordeste 24 Nordeste 0 -- -- 63
2021-01-15 09:00:00 14.9 11 Norte 30 Norte 0 -- -- 66
2021-01-15 08:00:00 14.9 9 Norte 29 Norte 0 -- -- 65
2021-01-15 07:00:00 14.7 10 Norte 28 Norte 0 -- -- 66
2021-01-15 06:00:00 14.7 17 Norte 37 Nordeste 0 -- -- 63
2021-01-15 05:00:00 15.1 18 Nordeste 35 Nordeste 0 -- -- 69
2021-01-15 04:00:00 15.3 15 Norte 34 Norte 0 -- -- 66
2021-01-15 03:00:00 15.1 9 Nordeste 29 Nordeste 0 -- -- 74
2021-01-15 02:00:00 15.2 11 Nordeste 26 Nordeste 0 -- -- 75
2021-01-15 01:00:00 14.7 5 Noroeste 24 Norte 0 -- -- 66
2021-01-15 00:00:00 15 9 Nordeste 31 Norte 0 -- -- 69
2021-01-14 23:00:00 15.3 14 Nordeste 27 Nordeste 0 -- -- 72
2021-01-14 22:00:00 15.4 12 Nordeste 37 Norte 0 -- -- 71
2021-01-14 21:00:00 15.5 9 Nordeste 27 Nordeste 0 -- -- 75
2021-01-14 20:00:00 15.3 6 Nordeste 31 Nordeste 0 -- -- 73
2021-01-14 19:00:00 15.6 10 Norte 23 Norte 0 -- -- 70
2021-01-14 18:00:00 16.1 8 Norte 23 Nordeste 0 -- -- 63
2021-01-14 17:00:00 16.5 12 Nordeste 25 Nordeste 0 -- -- 56
2021-01-14 16:00:00 16.7 13 Nordeste 30 Norte 0 -- -- 61
2021-01-14 15:00:00 16.6 13 Norte 28 Nordeste 0 -- -- 65
2021-01-14 14:00:00 16.6 8 Nordeste 22 Nordeste 0 -- -- 68
2021-01-14 13:00:00 16.9 6 Nordeste 17 Norte 0 -- -- 68
2021-01-14 12:00:00 16.1 9 Nordeste 20 Norte 0 -- -- 69
2021-01-14 11:00:00 15.7 6 Nordeste 21 Nordeste 0 -- -- 71
2021-01-14 10:00:00 14.9 3 Noroeste 13 Este 0 -- -- 74
2021-01-14 09:00:00 12.5 5 Sur 10 Sur 0 -- -- 84
2021-01-14 08:00:00 11.5 4 Sur 13 Sur 0 -- -- 85
2021-01-14 07:00:00 12.3 6 Sur 14 Sudeste 0 -- -- 79
2021-01-14 06:00:00 12.5 5 Sudoeste 12 Norte 0 -- -- 77
2021-01-14 05:00:00 12.9 5 Sur 14 Sur 0 -- -- 75
2021-01-14 04:00:00 13.3 3 Este 12 Sur 0 -- -- 76
2021-01-14 03:00:00 13.9 4 Sudeste 13 Nordeste 0 -- -- 72
2021-01-14 02:00:00 14.4 5 Noroeste 19 Noroeste 0 -- -- 69
2021-01-14 01:00:00 14.2 5 Noroeste 21 Noroeste 0 -- -- 68
2021-01-14 00:00:00 14.5 5 Noroeste 14 Nordeste 0 -- -- 67
2021-01-13 23:00:00 14.6 4 Nordeste 21 Este 0 -- -- 71
2021-01-13 22:00:00 15.2 10 Nordeste 21 Nordeste 0 -- -- 70
2021-01-13 21:00:00 15 7 Norte 24 Norte 0 -- -- 68
2021-01-13 20:00:00 15.1 6 Norte 28 Nordeste 0 -- -- 69
2021-01-13 19:00:00 15.1 9 Nordeste 35 Norte 0 -- -- 69
2021-01-13 18:00:00 15.2 9 Nordeste 40 Nordeste 0 -- -- 69
2021-01-13 17:00:00 15.4 11 Nordeste 29 Nordeste 0 -- -- 71
2021-01-13 16:00:00 15.6 10 Norte 30 Nordeste 0 -- -- 70
2021-01-13 15:00:00 15.7 11 Norte 32 Norte 0 -- -- 73
2021-01-13 14:00:00 15.6 12 Norte 33 Norte 0 -- -- 72
2021-01-13 13:00:00 15.5 17 Norte 36 Norte 0 -- -- 75
2021-01-13 12:00:00 15.5 15 Norte 32 Norte 0 -- -- 79
2021-01-13 11:00:00 15.3 13 Norte 29 Nordeste 0 -- -- 80
2021-01-13 10:00:00 15.5 7 Nordeste 24 Norte 0 -- -- 73
2021-01-13 09:00:00 14.8 7 Nordeste 22 Norte 0 -- -- 74
2021-01-13 08:00:00 14.8 7 Nordeste 22 Norte 0 -- -- 79
2021-01-13 07:00:00 14.7 8 Norte 31 Nordeste 0 -- -- 66
2021-01-13 06:00:00 14.8 11 Nordeste 26 Norte 0 -- -- 76
2021-01-13 05:00:00 14.8 11 Nordeste 31 Nordeste 0 -- -- 74
2021-01-13 04:00:00 14.9 11 Nordeste 36 Nordeste 0 -- -- 72
2021-01-13 03:00:00 14.8 8 Nordeste 35 Norte 0 -- -- 79
2021-01-13 02:00:00 15 14 Norte 33 Norte 0 -- -- 80
2021-01-13 01:00:00 15 10 Norte 29 Norte 0 -- -- 79
2021-01-13 00:00:00 14.9 6 Nordeste 11 Norte 0 -- -- 77
2021-01-12 23:00:00 14.7 4 Noroeste 21 Nordeste 0 -- -- 76
2021-01-12 22:00:00 14.9 8 Nordeste 20 Norte 0 -- -- 76
2021-01-12 21:00:00 14.9 12 Norte 22 Nordeste 0 -- -- 75
2021-01-12 20:00:00 14.9 7 Norte 18 Nordeste 0 -- -- 74
2021-01-12 19:00:00 14.9 6 Norte 21 Norte 0 -- -- 76
2021-01-12 18:00:00 15.1 7 Nordeste 19 Nordeste 0 -- -- 72
2021-01-12 17:00:00 15.5 6 Norte 18 Noroeste 0 -- -- 68
2021-01-12 16:00:00 15.7 6 Norte 21 Nordeste 0 -- -- 66
2021-01-12 15:00:00 16.1 8 Norte 23 Nordeste 0 -- -- 74
2021-01-12 14:00:00 16.4 4 Norte 12 Sudoeste 0 -- -- 66
2021-01-12 13:00:00 15.7 4 Sur 19 Norte 0 -- -- 69
2021-01-12 12:00:00 14.8 8 Nordeste 26 Norte 0 -- -- 78
2021-01-12 11:00:00 14.7 6 Nordeste 15 Este 0 -- -- 76
2021-01-12 10:00:00 13.8 6 Sur 10 Sur 0 -- -- 80
2021-01-12 09:00:00 13.4 3 Sur 13 Nordeste 0 -- -- 83
2021-01-12 08:00:00 13.6 10 Nordeste 21 Norte 0 -- -- 75
2021-01-12 07:00:00 13.3 6 Nordeste 14 Norte 0 -- -- 84
2021-01-12 06:00:00 12.2 4 Sur 8 Sudeste 0 -- -- 82
2021-01-12 05:00:00 12.7 3 Sur 9 Sur 0 -- -- 81
2021-01-12 04:00:00 13.2 3 Norte 8 Nordeste 0 -- -- 79
2021-01-12 03:00:00 13 2 Este 16 Nordeste 0 -- -- 82
2021-01-12 02:00:00 13.8 6 Sudeste 30 Nordeste 0 -- -- 81
2021-01-12 01:00:00 14.1 4 Noroeste 12 Norte 0 -- -- 74
2021-01-12 00:00:00 14.3 8 Nordeste 26 Norte 0 -- -- 75
2021-01-11 23:00:00 14.5 6 Nordeste 21 Nordeste 0 -- -- 72
2021-01-11 22:00:00 14.4 6 Noroeste 24 Nordeste 0 -- -- 70
2021-01-11 21:00:00 14.7 10 Nordeste 29 Nordeste 0 -- -- 67
2021-01-11 20:00:00 14.6 9 Nordeste 29 Nordeste 0 -- -- 66
2021-01-11 19:00:00 14.7 10 Norte 24 Norte 0 -- -- 66
2021-01-11 18:00:00 14.9 12 Nordeste 24 Nordeste 0 -- -- 63
2021-01-11 17:00:00 15.2 8 Norte 25 Norte 0 -- -- 61
2021-01-11 16:00:00 15.8 9 Norte 26 Nordeste 0 -- -- 53
2021-01-11 15:00:00 16.2 10 Norte 28 Norte 0 -- -- 53
2021-01-11 14:00:00 16.1 12 Norte 30 Norte 0 -- -- 53
2021-01-11 13:00:00 15.2 13 Nordeste 32 Norte 0 -- -- 58
2021-01-11 12:00:00 15.4 13 Norte 36 Nordeste 0 -- -- 60
2021-01-11 11:00:00 15 11 Norte 29 Norte 0 -- -- 62
2021-01-11 10:00:00 14.6 11 Nordeste 26 Noroeste 0 -- -- 68
2021-01-11 09:00:00 14 8 Norte 29 Norte 0 -- -- 69
2021-01-11 08:00:00 14 10 Norte 30 Norte 0 -- -- 73
2021-01-11 07:00:00 14.1 7 Norte 27 Nordeste 0 -- -- 69
2021-01-11 06:00:00 13.9 9 Nordeste 36 Nordeste 0 -- -- 78
2021-01-11 05:00:00 14.4 13 Nordeste 31 Nordeste 0 -- -- 69
2021-01-11 04:00:00 14.4 15 Nordeste 35 Norte 0 -- -- 72
2021-01-11 03:00:00 14.3 14 Nordeste 36 Nordeste 0 -- -- 73
2021-01-11 02:00:00 13.7 19 Norte 44 Norte 0 -- -- 86
2021-01-11 01:00:00 14.4 20 Norte 44 Nordeste 0 -- -- 77
2021-01-11 00:00:00 14.9 17 Nordeste 41 Nordeste 0 -- -- 74
2021-01-10 23:00:00 15 14 Nordeste 35 Nordeste 0 -- -- 64
2021-01-10 22:00:00 15 17 Nordeste 38 Norte 0 -- -- 61
2021-01-10 21:00:00 15 18 Nordeste 44 Norte 0 -- -- 60
2021-01-10 20:00:00 15.1 19 Nordeste 40 Nordeste 0 -- -- 68
2021-01-10 19:00:00 15 22 Nordeste 42 Nordeste 0 -- -- 72
2021-01-10 18:00:00 14.9 15 Nordeste 37 Nordeste 0 -- -- 74
2021-01-10 17:00:00 15.1 17 Nordeste 44 Nordeste 0 -- -- 71
2021-01-10 16:00:00 15.1 18 Nordeste 40 Norte 0.2 -- -- 73
2021-01-10 15:00:00 15 22 Nordeste 43 Norte 0 -- -- 72
2021-01-10 14:00:00 15.6 15 Nordeste 37 Nordeste 0 -- -- 71
2021-01-10 13:00:00 15.7 17 Nordeste 52 Nordeste 0.2 -- -- 71
2021-01-10 12:00:00 16.2 19 Nordeste 40 Nordeste 0 -- -- 60
2021-01-10 11:00:00 15 15 Nordeste 38 Nordeste 0 -- -- 70
2021-01-10 10:00:00 14.3 10 Norte 31 Norte 0 -- -- 74
2021-01-10 09:00:00 13 11 Nordeste 42 Nordeste 1 -- -- 80
2021-01-10 08:00:00 14.5 17 Nordeste 42 Nordeste 0 -- -- 62
2021-01-10 07:00:00 14.1 12 Nordeste 44 Nordeste 0 -- -- 70
2021-01-10 06:00:00 14.4 15 Nordeste 44 Nordeste 0 -- -- 68
2021-01-10 05:00:00 14.4 23 Nordeste 57 Nordeste 0 -- -- 64
2021-01-10 04:00:00 14.7 19 Nordeste 42 Norte 0 -- -- 59
2021-01-10 03:00:00 14.6 18 Nordeste 51 Nordeste 0 -- -- 64
2021-01-10 02:00:00 13.8 14 Nordeste 32 Nordeste 0.4 -- -- 70
2021-01-10 01:00:00 13.2 13 Nordeste 40 Este 0 -- -- 80
2021-01-10 00:00:00 14.3 12 Nordeste 44 Nordeste 0 -- -- 68
2021-01-09 23:00:00 14.3 19 Norte 37 Nordeste 0 -- -- 74
2021-01-09 22:00:00 13.9 13 Nordeste 36 Norte 0 -- -- 70
2021-01-09 21:00:00 14.1 15 Norte 35 Noroeste 0 -- -- 69
2021-01-09 20:00:00 14 13 Nordeste 32 Norte 0 -- -- 65
2021-01-09 19:00:00 13.8 9 Nordeste 35 Nordeste 0 -- -- 65
2021-01-09 18:00:00 14 17 Nordeste 39 Nordeste 0 -- -- 68
2021-01-09 17:00:00 14.1 18 Nordeste 45 Nordeste 0 -- -- 69
2021-01-09 16:00:00 14.4 15 Nordeste 39 Nordeste 0 -- -- 67
2021-01-09 15:00:00 14 17 Nordeste 54 Nordeste 1.4 -- -- 65
2021-01-09 14:00:00 13.7 16 Nordeste 65 Nordeste 2.4 -- -- 73
2021-01-09 13:00:00 13.9 17 Nordeste 53 Nordeste 1.2 -- -- 72
2021-01-09 12:00:00 14.6 19 Nordeste 45 Nordeste 0 -- -- 61
2021-01-09 11:00:00 13.9 18 Nordeste 47 Nordeste 0.2 -- -- 65
2021-01-09 10:00:00 13.5 21 Nordeste 44 Nordeste 1.6 -- -- 72
2021-01-09 09:00:00 12.6 13 Nordeste 44 Nordeste 2.4 -- -- 82
2021-01-09 08:00:00 13.8 24 Nordeste 54 Nordeste 0.2 -- -- 64
2021-01-09 07:00:00 13.8 12 Nordeste 60 Nordeste 0 -- -- 60
2021-01-09 06:00:00 13.9 14 Nordeste 34 Nordeste 0 -- -- 62
2021-01-09 05:00:00 12.9 6 Sudeste 45 Nordeste 0 -- -- 73
2021-01-09 04:00:00 14.1 16 Nordeste 36 Nordeste 0 -- -- 69
2021-01-09 03:00:00 14.1 14 Este 50 Nordeste 0 -- -- 62
2021-01-09 02:00:00 14.2 17 Nordeste 46 Nordeste 0 -- -- 71
2021-01-09 01:00:00 14.4 15 Nordeste 34 Nordeste 0 -- -- 72
2021-01-09 00:00:00 14.2 14 Nordeste 35 Nordeste 0 -- -- 74
2021-01-08 23:00:00 14.1 13 Nordeste 34 Norte 0 -- -- 76
2021-01-08 22:00:00 13.9 8 Nordeste 49 Nordeste 1.2 -- -- 75
2021-01-08 21:00:00 14.9 16 Nordeste 42 Nordeste 0 -- -- 65
2021-01-08 20:00:00 14.8 22 Nordeste 45 Nordeste 0 -- -- 67
2021-01-08 19:00:00 14.6 22 Nordeste 42 Nordeste 0 -- -- 77
2021-01-08 18:00:00 14.5 13 Nordeste 36 Nordeste 0 -- -- 78
2021-01-08 17:00:00 14.4 9 Nordeste 41 Este 0.2 -- -- 75
2021-01-08 16:00:00 14.4 12 Nordeste 44 Este 1 -- -- 74
2021-01-08 15:00:00 15.3 17 Nordeste 40 Nordeste 0 -- -- 72
2021-01-08 14:00:00 15.2 19 Nordeste 42 Nordeste 0 -- -- 78
2021-01-08 13:00:00 15.2 24 Nordeste 51 Nordeste 0 -- -- 77
2021-01-08 12:00:00 15.4 19 Nordeste 50 Nordeste 0 -- -- 80
2021-01-08 11:00:00 15.7 11 Nordeste 56 Nordeste 0 -- -- 74
2021-01-08 10:00:00 15.4 12 Norte 37 Nordeste 0 -- -- 79
2021-01-08 09:00:00 15.2 9 Este 33 Nordeste 0.2 -- -- 82
2021-01-08 08:00:00 15 12 Sudeste 50 Norte 1.6 -- -- 85
2021-01-08 07:00:00 15.8 11 Este 47 Norte 0 -- -- 83
2021-01-08 06:00:00 15.7 6 Nordeste 25 Este 1 -- -- 85
2021-01-08 05:00:00 15.5 7 Sur 36 Este 1.4 -- -- 90
2021-01-08 04:00:00 16.1 7 Este 22 Este 0 -- -- 84
2021-01-08 03:00:00 16.2 12 Nordeste 46 Sudoeste 1.6 -- -- 86
2021-01-08 02:00:00 16.9 18 Sudoeste 56 Sudoeste 0.6 -- -- 78
2021-01-08 01:00:00 16.3 14 Sudoeste 49 Oeste 1.6 -- -- 81
2021-01-08 00:00:00 16.7 12 Sudoeste 30 Sur 1 -- -- 83
2021-01-07 23:00:00 16.2 3 Sur 13 Oeste 2 -- -- 91
2021-01-07 22:00:00 16.7 6 Nordeste 22 Sur 0.8 -- -- 91
2021-01-07 21:00:00 16.8 3 Nordeste 38 Sudoeste 4.8 -- -- 88
2021-01-07 20:00:00 18.2 12 Sur 44 Sur 1.4 -- -- 78
2021-01-07 19:00:00 18.7 17 Sur 40 Sudoeste 0.8 -- -- 79
2021-01-07 18:00:00 19.9 17 Sur 50 Sudoeste 0 -- -- 67
2021-01-07 17:00:00 19.5 13 Sudoeste 61 Sur 0 -- -- 73
2021-01-07 16:00:00 20.7 30 Sur 64 Sur 0 -- -- 63
2021-01-07 15:00:00 21.2 24 Sur 58 Sur 0 -- -- 62
2021-01-07 14:00:00 20.7 28 Sur 73 Sur 0 -- -- 65
2021-01-07 13:00:00 20.9 32 Sur 76 Sur 0 -- -- 62
2021-01-07 12:00:00 21 25 Sur 71 Sudoeste 0 -- -- 62
2021-01-07 11:00:00 21.1 31 Sur 66 Sur 0 -- -- 61
2021-01-07 10:00:00 19.6 26 Sur 56 Sur 0.2 -- -- 69
2021-01-07 09:00:00 18.2 12 Sur 35 Sur 2.6 -- -- 84
2021-01-07 08:00:00 18.1 9 Sur 37 Sudoeste 0.4 -- -- 82
2021-01-07 07:00:00 18.2 15 Sur 52 Sudoeste 3.2 -- -- 80
2021-01-07 06:00:00 18.1 17 Sudoeste 41 Sudeste 1.2 -- -- 87
2021-01-07 05:00:00 16.3 4 Nordeste 13 Este 1.2 -- -- 94
2021-01-07 04:00:00 15.7 4 Este 10 Sudeste 1.4 -- -- 95
2021-01-07 03:00:00 16 3 Sudoeste 13 Sudeste 0.2 -- -- 92
2021-01-07 02:00:00 16.5 5 Sudeste 11 Nordeste 0 -- -- 88
2021-01-07 01:00:00 17.4 3 Norte 14 Este 0 -- -- 83
2021-01-07 00:00:00 17.3 3 Este 18 Este 0 -- -- 90
2021-01-06 23:00:00 17 5 Sudeste 12 Sur 0 -- -- 93
2021-01-06 22:00:00 16.8 3 Este 13 Nordeste 0.2 -- -- 93
2021-01-06 21:00:00 17.5 4 Sudeste 8 Sur 0.2 -- -- 91
2021-01-06 20:00:00 18.2 4 Nordeste 7 Nordeste 0 -- -- 84
2021-01-06 19:00:00 18.4 4 Este 21 Este 0 -- -- 84
2021-01-06 18:00:00 20 8 Este 22 Este 0 -- -- 74
2021-01-06 17:00:00 20.8 5 Nordeste 19 Norte 0 -- -- 74
2021-01-06 16:00:00 21.3 8 Norte 25 Este 0 -- -- 73
2021-01-06 15:00:00 21.5 5 Nordeste 24 Sudeste 0 -- -- 71
2021-01-06 14:00:00 22.1 10 Sur 23 Sur 0 -- -- 66
2021-01-06 13:00:00 21.1 4 Sur 31 Sur 0.2 -- -- 68
2021-01-06 12:00:00 20.9 8 Sur 31 Nordeste 0 -- -- 70
2021-01-06 11:00:00 18.6 6 Nordeste 19 Nordeste 3.6 -- -- 93
2021-01-06 10:00:00 18.6 7 Nordeste 27 Sur 3.6 -- -- 90
2021-01-06 09:00:00 18.6 8 Este 30 Sudoeste 0.4 -- -- 85
2021-01-06 08:00:00 17.7 5 Oeste 20 Sudoeste 2.2 -- -- 92
2021-01-06 07:00:00 17.7 11 Sur 40 Sur 5.4 -- -- 91
2021-01-06 06:00:00 16.6 4 Sur 9 Nordeste 0.8 -- -- 95
2021-01-06 05:00:00 17.7 4 Este 15 Norte 1.2 -- -- 88
2021-01-06 04:00:00 17.6 4 Oeste 26 Sudoeste 0 -- -- 87
2021-01-06 03:00:00 15.9 5 Sudeste 10 Este 0 -- -- 89
2021-01-06 02:00:00 15.7 4 Este 12 Oeste 0.2 -- -- 91
2021-01-06 01:00:00 16 4 Sur 10 Sur 0.4 -- -- 93
2021-01-06 00:00:00 16.4 7 Sur 12 Sur 0 -- -- 89
2021-01-05 23:00:00 15.8 6 Sudeste 11 Sur 0 -- -- 85
2021-01-05 22:00:00 15.8 5 Sudeste 11 Este 0 -- -- 85
2021-01-05 21:00:00 15.4 4 Sudeste 9 Sudeste 0 -- -- 86
2021-01-05 20:00:00 16.6 3 Sur 10 Este 0 -- -- 82
2021-01-05 19:00:00 17.4 3 Sudeste 14 Sudeste 0 -- -- 80
2021-01-05 18:00:00 18.7 4 Nordeste 12 Nordeste 0 -- -- 80
2021-01-05 17:00:00 19.8 7 Nordeste 12 Nordeste 0 -- -- 74
2021-01-05 16:00:00 20.4 4 Noroeste 15 Este 0 -- -- 74
2021-01-05 15:00:00 20.9 7 Nordeste 17 Este 0 -- -- 70
2021-01-05 14:00:00 21 5 Nordeste 15 Norte 0 -- -- 70
2021-01-05 13:00:00 21.3 8 Norte 17 Norte 0 -- -- 72
2021-01-05 12:00:00 20.7 5 Nordeste 13 Norte 0 -- -- 72
2021-01-05 11:00:00 20 8 Nordeste 18 Nordeste 0 -- -- 73
2021-01-05 10:00:00 19.1 5 Noroeste 15 Oeste 0 -- -- 74
2021-01-05 09:00:00 17.4 6 Sur 19 Oeste 0 -- -- 78
2021-01-05 08:00:00 16.9 5 Sur 17 Sudoeste 0 -- -- 78
2021-01-05 07:00:00 17.6 7 Sudoeste 23 Oeste 0 -- -- 75
2021-01-05 06:00:00 17.2 5 Sur 19 Oeste 0 -- -- 76
2021-01-05 05:00:00 17.3 9 Sudoeste 22 Sudoeste 0 -- -- 75
2021-01-05 04:00:00 17.2 5 Sudoeste 18 Oeste 0 -- -- 75
2021-01-05 03:00:00 17.1 5 Sudoeste 17 Sudoeste 0 -- -- 76
2021-01-05 02:00:00 17.1 5 Sur 15 Sudoeste 0 -- -- 77
2021-01-05 01:00:00 17.3 5 Sur 18 Sudoeste 0 -- -- 74
2021-01-05 00:00:00 17 5 Sudoeste 16 Oeste 0 -- -- 75
2021-01-04 23:00:00 16.9 7 Sur 22 Oeste 0 -- -- 75
2021-01-04 22:00:00 16.1 5 Sur 10 Sudeste 0 -- -- 83
2021-01-04 21:00:00 18.2 4 Norte 17 Este 0 -- -- 77
2021-01-04 20:00:00 19 5 Este 12 Nordeste 0 -- -- 76
2021-01-04 19:00:00 19.7 6 Sudeste 42 Sudoeste 0 -- -- 72
2021-01-04 18:00:00 19.9 12 Sur 42 Sudoeste 0 -- -- 65
2021-01-04 17:00:00 19.8 10 Sur 30 Sudeste 0 -- -- 68
2021-01-04 16:00:00 19.9 8 Sur 27 Sur 0 -- -- 73
2021-01-04 15:00:00 19.9 8 Sur 25 Sudoeste 0 -- -- 71
2021-01-04 14:00:00 19.6 13 Sur 39 Sur 0 -- -- 75
2021-01-04 13:00:00 19.2 13 Sur 38 Sur 0 -- -- 74
2021-01-04 12:00:00 19.6 15 Sur 39 Sudoeste 0 -- -- 73
2021-01-04 11:00:00 19.2 20 Sur 45 Sudoeste 0 -- -- 72
2021-01-04 10:00:00 19 22 Sur 46 Sur 0 -- -- 72
2021-01-04 09:00:00 17.8 15 Sur 42 Sur 0 -- -- 75
2021-01-04 08:00:00 17 12 Sur 35 Sudoeste 0 -- -- 80
2021-01-04 07:00:00 16.7 17 Sur 41 Sudoeste 0 -- -- 81
2021-01-04 06:00:00 17.8 11 Sur 29 Sur 0 -- -- 72
2021-01-04 05:00:00 18 9 Sur 27 Sur 0 -- -- 69
2021-01-04 04:00:00 17.2 6 Norte 14 Sudoeste 0 -- -- 71
2021-01-04 03:00:00 16.6 4 Oeste 23 Sur 0 -- -- 77
2021-01-04 02:00:00 16.3 6 Sur 27 Sur 0 -- -- 79
2021-01-04 01:00:00 16.4 9 Sur 27 Sudoeste 0 -- -- 79
2021-01-04 00:00:00 16.4 13 Sur 30 Sudoeste 0 -- -- 78
2021-01-03 23:00:00 16.2 10 Sudoeste 21 Sudoeste 0 -- -- 78
2021-01-03 22:00:00 16.5 6 Sur 22 Sur 0 -- -- 75
2021-01-03 21:00:00 16.1 6 Sur 18 Sudoeste 0 -- -- 78
2021-01-03 20:00:00 16.2 9 Sudoeste 21 Sur 0 -- -- 78
2021-01-03 19:00:00 16.3 8 Sur 23 Sudoeste 0 -- -- 78
2021-01-03 18:00:00 16.5 11 Sur 34 Sur 0 -- -- 77
2021-01-03 17:00:00 16.8 10 Sur 23 Sur 0 -- -- 77
2021-01-03 16:00:00 17.3 8 Sur 18 Sudoeste 0 -- -- 76
2021-01-03 15:00:00 17.8 6 Sur 17 Sudeste 0 -- -- 73
2021-01-03 14:00:00 18.1 5 Sudeste 13 Sur 0 -- -- 71
2021-01-03 13:00:00 17.4 4 Sudoeste 9 Sudoeste 0 -- -- 76
2021-01-03 12:00:00 16.5 3 Este 5 Nordeste 0 -- -- 72
2021-01-03 11:00:00 14.8 4 Sur 10 Sur 0 -- -- 86
2021-01-03 10:00:00 14.5 6 Sur 10 Sur 0 -- -- 83
2021-01-03 09:00:00 14.3 8 Sur 12 Sur 0 -- -- 75
2021-01-03 08:00:00 13.7 6 Sur 10 Sur 0 -- -- 77
2021-01-03 07:00:00 13.6 5 Sur 12 Sur 0 -- -- 73
2021-01-03 06:00:00 13.3 7 Sur 11 Sur 0 -- -- 75
2021-01-03 05:00:00 13.6 5 Sur 11 Sur 0 -- -- 76
2021-01-03 04:00:00 14 6 Sur 14 Sudeste 0 -- -- 74
2021-01-03 03:00:00 13.6 7 Sur 13 Sur 0 -- -- 75
2021-01-03 02:00:00 13.7 3 Sur 17 Sur 0 -- -- 78
2021-01-03 01:00:00 13.8 8 Sur 15 Sur 0 -- -- 77
2021-01-03 00:00:00 14.3 6 Sur 13 Sur 0 -- -- 77
2021-01-02 23:00:00 14.4 4 Sur 11 Sur 0 -- -- 78
2021-01-02 22:00:00 14.2 6 Sur 14 Sudeste 0 -- -- 78
2021-01-02 21:00:00 13.6 7 Sur 15 Sur 0 -- -- 73
2021-01-02 20:00:00 14 7 Sur 14 Sur 0 -- -- 74
2021-01-02 19:00:00 14.6 8 Sur 13 Sur 0 -- -- 75
2021-01-02 18:00:00 16.1 4 Sur 10 Nordeste 0 -- -- 73
2021-01-02 17:00:00 16.7 0 Calma 10 Norte 0 -- -- 67
2021-01-02 16:00:00 17 5 Nordeste 13 Norte 0 -- -- 66
2021-01-02 15:00:00 17.2 5 Norte 12 Nordeste 0 -- -- 64
2021-01-02 14:00:00 17 4 Nordeste 10 Nordeste 0 -- -- 66
2021-01-02 13:00:00 16.5 2 Sudoeste 14 Nordeste 0 -- -- 72